ADDS METAR Data INFO
IDs: Format: Raw Decoded Include TAF

Data at: 1746 UTC 21 Oct 2017

KLCG 211735Z AUTO 31014G25KT 10SM BKN032 BKN042 OVC060 15/08 A2967 RMK AO2 P0001 T01530081
KLCG 211715Z AUTO 31017G23KT 10SM -RA BKN030 OVC036 15/11 A2965 RMK AO2 P0001 T01520109
KLCG 211655Z AUTO 29016G22KT 10SM BKN028 OVC036 18/10 A2963 RMK AO2 T01800097
KLCG 211635Z AUTO 22017G23KT 10SM SCT028 BKN033 OVC060 22/18 A2960 RMK AO2 T02180175
KLCG 211615Z AUTO 20014G20KT 10SM BKN028 OVC060 22/18 A2959 RMK AO2 T02150177
KLCG 211555Z AUTO 21016G22KT 10SM BKN030 BKN041 OVC050 22/18 A2959 RMK AO2 T02180175
KLCG 211535Z AUTO 20013KT 10SM SCT028 SCT044 OVC050 22/18 A2958 RMK AO2 T02150179
KLCG 211515Z AUTO 20017G21KT 10SM SCT028 BKN033 OVC050 21/18 A2958 RMK AO2 T02140177
KLCG 211455Z AUTO 20014G23KT 10SM SCT029 BKN046 OVC055 21/18 A2957 RMK AO2 T02130177
KLCG 211435Z AUTO 19015G21KT 10SM SCT029 SCT035 OVC055 21/18 A2957 RMK AO2 T02140178
KLCG 211415Z AUTO 19016G22KT 10SM BKN027 BKN035 OVC055 22/18 A2956 RMK AO2 T02150178
KLCG 211355Z AUTO 20014G19KT 10SM BKN027 OVC035 21/18 A2956 RMK AO2 T02110179
KLCG 211335Z AUTO 19015G19KT 10SM BKN027 OVC034 21/18 A2955 RMK AO2 T02100178
KLCG 211315Z AUTO 18011KT 10SM BKN027 OVC035 21/18 A2955 RMK AO2 LTG DSNT NE T02050181
KLCG 211255Z AUTO 17012G15KT 10SM BKN027 BKN033 OVC039 20/18 A2955 RMK AO2 T02030181
KLCG 211235Z AUTO 19009KT 10SM BKN029 OVC037 20/18 A2955 RMK AO2 T02020183
KLCG 211215Z AUTO 18011G18KT 10SM SCT031 OVC037 20/18 A2954 RMK AO2 T02020180
KLCG 211155Z AUTO 18013KT 10SM BKN029 OVC035 20/18 A2953 RMK AO2 LTG DSNT NE T02040180 10207 20190
KLCG 211135Z AUTO 17014KT 10SM OVC032 20/18 A2953 RMK AO2 LTG DSNT E T02030178
KLCG 211115Z AUTO 17013KT 10SM OVC032 20/18 A2953 RMK AO2 T02020178
KLCG 211055Z AUTO 18013G22KT 10SM OVC034 20/18 A2953 RMK AO2 T02020176
KLCG 211035Z AUTO 17019G25KT 10SM OVC034 20/18 A2952 RMK AO2 T02020175
KLCG 211015Z AUTO 17018G23KT 10SM BKN029 OVC037 20/18 A2952 RMK AO2 T02010175
KLCG 210955Z AUTO 17016G28KT 10SM SCT027 OVC037 20/17 A2952 RMK AO2 T02030172
KLCG 210935Z AUTO 17018G25KT 10SM BKN027 OVC037 21/17 A2952 RMK AO2 T02050171
KLCG 210915Z AUTO 17018G29KT 10SM BKN029 OVC036 21/17 A2952 RMK AO2 LTG DSNT SE T02060170
KLCG 210855Z AUTO 17018G24KT 10SM OVC027 21/17 A2953 RMK AO2 LTG DSNT SE T02050168
KLCG 210835Z AUTO 17015G21KT 10SM OVC029 20/17 A2954 RMK AO2 T02000166
KLCG 210815Z AUTO 18021G26KT 10SM OVC029 21/16 A2954 RMK AO2 T02050164
KLCG 210755Z AUTO 18018G28KT 10SM BKN031 OVC037 20/16 A2955 RMK AO2 LTG DSNT SE T02010162
KLCG 210735Z AUTO 17022G26KT 10SM OVC034 20/16 A2956 RMK AO2 LTG DSNT SE T02000161
KLCG 210715Z AUTO 18017G25KT 10SM BKN034 BKN039 20/16 A2956 RMK AO2 T01980160
KLCG 210655Z AUTO 17022G28KT 10SM SCT032 BKN041 20/16 A2957 RMK AO2 T01950158
KLCG 210635Z AUTO 17019G26KT 10SM SCT031 SCT037 SCT045 19/16 A2957 RMK AO2 T01910155
KLCG 210615Z AUTO 17018G29KT 10SM SCT048 19/15 A2958 RMK AO2 T01910151
KLCG 210555Z AUTO 17017G26KT 10SM SCT048 SCT055 19/15 A2958 RMK AO2 T01900149 10225 20186 402460122
KLCG 210535Z AUTO 17019G26KT 10SM CLR 19/15 A2959 RMK AO2 T01870147
KLCG 210515Z AUTO 17017G26KT 10SM CLR 19/15 A2959 RMK AO2 T01890147
KLCG 210455Z AUTO 17017G25KT 10SM CLR 19/15 A2960 RMK AO2 T01900148
KLCG 210435Z AUTO 17016G25KT 10SM CLR 19/15 A2961 RMK AO2 T01900149
KLCG 210415Z AUTO 17016G24KT 10SM CLR 19/15 A2961 RMK AO2 T01920147
KLCG 210355Z AUTO 17018G22KT 10SM SCT045 20/15 A2962 RMK AO2 T01950145
KLCG 210335Z AUTO 17016G21KT 10SM BKN045 20/14 A2963 RMK AO2 T01980144
KLCG 210315Z AUTO 17019G25KT 10SM CLR 20/14 A2962 RMK AO2 T02000144
KLCG 210255Z AUTO 17018G25KT 10SM CLR 20/14 A2962 RMK AO2 T02040144
KLCG 210235Z AUTO 17017G23KT 10SM CLR 20/15 A2962 RMK AO2 T02030147
KLCG 210215Z AUTO 17016G22KT 10SM CLR 20/15 A2961 RMK AO2 T02030150
KLCG 210155Z AUTO 17016KT 10SM CLR 21/15 A2961 RMK AO2 T02050150
KLCG 210135Z AUTO 17017G23KT 10SM CLR 21/15 A2961 RMK AO2 T02090148
KLCG 210115Z AUTO 17016G22KT 10SM CLR 21/15 A2961 RMK AO2 T02100149
KLCG 210055Z AUTO 16014G21KT 10SM CLR 21/15 A2962 RMK AO2 T02090148
KLCG 210035Z AUTO 16019G25KT 10SM SCT047 21/15 A2961 RMK AO2 T02140145
KLCG 210015Z AUTO 16017G24KT 10SM BKN047 22/14 A2962 RMK AO2 T02180141
KLCG 202355Z AUTO 16017G27KT 10SM OVC045 23/14 A2961 RMK AO2 T02260136 10246 20225
KLCG 202335Z AUTO 17022G29KT 10SM BKN045 23/13 A2961 RMK AO2 T02260134
KLCG 202315Z AUTO 17020G27KT 10SM SCT045 23/13 A2961 RMK AO2 T02290131
KLCG 202255Z AUTO 17018G33KT 10SM SCT046 23/13 A2961 RMK AO2 T02320128
KLCG 202235Z AUTO 17024G28KT 10SM CLR 23/13 A2961 RMK AO2 T02310129
KLCG 202215Z AUTO 17027G32KT 10SM CLR 23/13 A2962 RMK AO2 T02340131
KLCG 202155Z AUTO 17025G32KT 10SM CLR 24/13 A2964 RMK AO2 T02350131
KLCG 202135Z AUTO 17024G36KT 10SM CLR 24/13 A2964 RMK AO2 T02370131
KLCG 202115Z AUTO 16028G36KT 10SM CLR 24/13 A2964 RMK AO2 T02390125
KLCG 202055Z AUTO 17023G31KT 10SM CLR 25/12 A2964 RMK AO2 T02450121
KLCG 202035Z AUTO 17023G35KT 10SM CLR 24/12 A2964 RMK AO2 T02420118
KLCG 202015Z AUTO 16024G31KT 10SM CLR 23/13 A2966 RMK AO2 T02340125
KLCG 201955Z AUTO 17019G27KT 10SM CLR 23/12 A2967 RMK AO2 T02250122
KLCG 201935Z AUTO 17018G30KT 10SM CLR 23/12 A2968 RMK AO2 T02310116
KLCG 201915Z AUTO 17022G28KT 10SM CLR 24/12 A2969 RMK AO2 T02390117
KLCG 201855Z AUTO 19021G25KT 10SM CLR 23/12 A2971 RMK AO2 T02260115
KLCG 201835Z AUTO 18019G29KT 10SM CLR 23/11 A2973 RMK AO2 T02270114
KLCG 201815Z AUTO 18021G26KT 10SM CLR 23/11 A2974 RMK AO2 T02270114
KLCG 201755Z AUTO 18019G26KT 10SM CLR 22/11 A2974 RMK AO2 T02230113 10223 20128
KLCG 201735Z AUTO 19020G26KT 10SM CLR 22/11 A2976 RMK AO2 T02210111
KLCG 201715Z AUTO 18019G27KT 10SM CLR 22/11 A2977 RMK AO2 T02180114
KLCG 201655Z AUTO 19016G28KT 10SM CLR 21/11 A2978 RMK AO2 T02120113
KLCG 201635Z AUTO 19017G28KT 10SM CLR 20/11 A2979 RMK AO2 T02030113
KLCG 201615Z AUTO 19017G27KT 10SM CLR 19/11 A2980 RMK AO2 T01940113
KLCG 201555Z AUTO 19019G26KT 10SM CLR 19/11 A2981 RMK AO2 T01910111
KLCG 201535Z AUTO 18013G22KT 10SM CLR 18/12 A2982 RMK AO2 T01790123
KLCG 201515Z AUTO 18017G20KT 10SM CLR 17/12 A2983 RMK AO2 T01690119
KLCG 201455Z AUTO 18016G20KT 10SM CLR 16/12 A2984 RMK AO2 T01580121
KLCG 201435Z AUTO 18011G15KT 10SM CLR 15/13 A2984 RMK AO2 T01470125
KLCG 201415Z AUTO 17010G14KT 10SM CLR 14/12 A2984 RMK AO2 T01400122
KLCG 201355Z AUTO 17010KT 10SM CLR 14/12 A2985 RMK AO2 T01350120
KLCG 201335Z AUTO 16010KT 10SM CLR 13/12 A2985 RMK AO2 T01320118
KLCG 201315Z AUTO 16009KT 10SM CLR 13/12 A2985 RMK AO2 T01320118
KLCG 201255Z AUTO 17010KT 10SM CLR 13/12 A2985 RMK AO2 T01300116
KLCG 201235Z AUTO 18009KT 10SM CLR 13/12 A2985 RMK AO2 T01300116
KLCG 201215Z AUTO 18010G16KT 10SM CLR 13/11 A2986 RMK AO2 T01340112
KLCG 201155Z AUTO 18008G14KT 10SM CLR 13/11 A2986 RMK AO2 T01310111 10153 20122
KLCG 201135Z AUTO 17008KT 10SM CLR 13/11 A2987 RMK AO2 T01280108
KLCG 201115Z AUTO 17009KT 10SM CLR 13/11 A2988 RMK AO2 T01270106
KLCG 201055Z AUTO 17007KT 10SM CLR 13/10 A2988 RMK AO2 T01290104
KLCG 201035Z AUTO 18007KT 10SM CLR 13/10 A2988 RMK AO2 T01300100
KLCG 201015Z AUTO 18008KT 10SM CLR 13/09 A2988 RMK AO2 T01330094
KLCG 200955Z AUTO 19009KT 10SM CLR 14/09 A2988 RMK AO2 T01370091
KLCG 200935Z AUTO 19007KT 10SM CLR 14/09 A2988 RMK AO2 T01370090
KLCG 200915Z AUTO 19007KT 10SM CLR 14/09 A2989 RMK AO2 T01360089
KLCG 200855Z AUTO 19005KT 10SM CLR 13/09 A2989 RMK AO2 T01340085
KLCG 200835Z AUTO 18008KT 10SM CLR 14/08 A2989 RMK AO2 T01400082
KLCG 200815Z AUTO 18008KT 10SM CLR 14/08 A2990 RMK AO2 T01420081
KLCG 200755Z AUTO 18007KT 10SM CLR 14/08 A2990 RMK AO2 T01440080
KLCG 200735Z AUTO 19007KT 10SM CLR 15/08 A2991 RMK AO2 T01480078
KLCG 200715Z AUTO 19008KT 10SM CLR 15/08 A2990 RMK AO2 T01510079
KLCG 200655Z AUTO 19008KT 10SM CLR 15/09 A2990 RMK AO2 T01470085
KLCG 200635Z AUTO 18005KT 10SM CLR 13/09 A2991 RMK AO2 T01260090
KLCG 200615Z AUTO 00000KT 10SM CLR 12/09 A2991 RMK AO2 T01230091
KLCG 200555Z AUTO 00000KT 10SM CLR 14/09 A2991 RMK AO2 T01350094 10180 20128 402420007